createdAt,value
2023-05-21T00:00:25.413Z,30.66
2023-05-21T00:01:26.661Z,31.33
2023-05-21T00:02:25.563Z,30.26
2023-05-21T00:03:25.586Z,29.09
2023-05-21T00:04:26.550Z,30.48
2023-05-21T00:05:25.676Z,28.99
2023-05-21T00:06:25.732Z,30.49
2023-05-21T00:07:26.668Z,30.47
2023-05-21T00:08:26.764Z,25.95
2023-05-21T00:09:26.791Z,30.17
2023-05-21T00:10:25.943Z,29.64
2023-05-21T00:11:26.977Z,31.79
2023-05-21T00:12:25.992Z,30.95
2023-05-21T00:13:25.877Z,27.62
2023-05-21T00:14:26.032Z,29.95
2023-05-21T00:15:25.961Z,31.65
2023-05-21T00:16:27.226Z,28.89
2023-05-21T00:17:26.137Z,29.47
2023-05-21T00:18:26.233Z,27.90
2023-05-21T00:19:27.302Z,28.27
2023-05-21T00:20:26.163Z,30.28
2023-05-21T00:21:27.205Z,28.06
2023-05-21T00:22:27.190Z,30.46
2023-05-21T00:23:27.214Z,34.13
2023-05-21T00:24:27.254Z,33.33
2023-05-21T00:25:26.397Z,26.41
2023-05-21T00:26:26.329Z,27.79
2023-05-21T00:27:26.357Z,29.82
2023-05-21T00:28:27.463Z,30.66
2023-05-21T00:29:26.418Z,32.51
2023-05-21T00:30:27.610Z,27.57
2023-05-21T00:31:26.597Z,29.03
2023-05-21T00:32:26.614Z,30.97
2023-05-21T00:33:26.825Z,29.44
2023-05-21T00:34:27.637Z,29.60
2023-05-21T00:35:26.652Z,28.33
2023-05-21T00:36:27.680Z,29.08
2023-05-21T00:37:27.706Z,27.38
2023-05-21T00:38:26.738Z,30.13
2023-05-21T00:39:26.804Z,27.43
2023-05-21T00:40:27.801Z,28.31
2023-05-21T00:41:27.970Z,29.93
2023-05-21T00:42:27.046Z,30.56
2023-05-21T00:43:28.079Z,32.17
2023-05-21T00:44:27.021Z,28.43
2023-05-21T00:45:28.224Z,25.94
2023-05-21T00:46:28.271Z,30.86
2023-05-21T00:47:27.372Z,30.07
2023-05-21T00:48:28.164Z,27.63
2023-05-21T00:49:27.383Z,27.77
2023-05-21T00:50:28.155Z,30.30
2023-05-21T00:51:28.313Z,28.15
2023-05-21T00:52:27.565Z,28.60
2023-05-21T00:53:28.270Z,32.56
2023-05-21T00:54:27.412Z,31.56
2023-05-21T00:55:27.611Z,25.00
2023-05-21T00:56:27.396Z,28.63
2023-05-21T00:57:27.469Z,29.77
2023-05-21T00:58:28.467Z,30.90
2023-05-21T00:59:27.514Z,27.71
2023-05-21T01:00:27.566Z,28.80
2023-05-21T01:01:27.698Z,29.19
2023-05-21T01:02:29.002Z,27.91
2023-05-21T01:03:27.943Z,29.20
2023-05-21T01:04:28.935Z,32.57
2023-05-21T01:05:28.815Z,28.68
2023-05-21T01:06:27.889Z,26.92
2023-05-21T01:07:28.056Z,28.89
2023-05-21T01:08:27.910Z,28.74
2023-05-21T01:09:29.155Z,29.92
2023-05-21T01:10:28.233Z,31.53
2023-05-21T01:11:28.269Z,26.27
2023-05-21T01:12:28.351Z,25.86
2023-05-21T01:13:28.145Z,28.31
2023-05-21T01:14:28.406Z,30.34
2023-05-21T01:15:29.408Z,28.94
2023-05-21T01:16:28.341Z,32.97
2023-05-21T01:17:29.310Z,29.57
2023-05-21T01:18:29.583Z,29.54
2023-05-21T01:19:29.536Z,28.60
2023-05-21T01:20:28.607Z,31.35
2023-05-21T01:21:29.546Z,30.98
2023-05-21T01:22:29.624Z,33.31
2023-05-21T01:23:28.586Z,32.41
2023-05-21T01:24:29.624Z,29.54
2023-05-21T01:25:28.662Z,34.09
2023-05-21T01:26:29.811Z,30.47
2023-05-21T01:27:28.770Z,29.39
2023-05-21T01:28:30.064Z,29.43
2023-05-21T01:29:29.920Z,30.54
2023-05-21T01:30:29.990Z,32.21
2023-05-21T01:31:29.008Z,29.43
2023-05-21T01:32:29.291Z,29.14
2023-05-21T01:33:30.151Z,32.98
2023-05-21T01:34:30.349Z,29.95
2023-05-21T01:35:30.133Z,28.28
2023-05-21T01:36:29.234Z,31.21
2023-05-21T01:37:29.360Z,28.57
2023-05-21T01:38:29.433Z,29.17
2023-05-21T01:39:30.457Z,28.98
2023-05-21T01:40:30.387Z,28.17
2023-05-21T01:41:30.405Z,30.70
2023-05-21T01:42:30.447Z,29.69
2023-05-21T01:43:29.757Z,32.35
2023-05-21T01:44:30.699Z,29.86
2023-05-21T01:45:29.744Z,29.75
2023-05-21T01:46:30.552Z,30.57
2023-05-21T01:47:30.783Z,30.44
2023-05-21T01:48:29.942Z,31.56
2023-05-21T01:49:30.973Z,32.17
2023-05-21T01:50:29.976Z,33.22
2023-05-21T01:51:29.914Z,33.40
2023-05-21T01:52:30.109Z,31.80
2023-05-21T01:53:30.039Z,30.89
2023-05-21T01:54:30.092Z,30.27
2023-05-21T01:55:30.270Z,31.45
2023-05-21T01:56:30.186Z,31.12
2023-05-21T01:57:31.281Z,29.54
2023-05-21T01:58:30.411Z,33.34
2023-05-21T01:59:31.516Z,30.03
2023-05-21T02:00:30.357Z,29.49
2023-05-21T02:01:31.633Z,32.63
2023-05-21T02:02:30.740Z,33.01
2023-05-21T02:03:31.858Z,29.34
2023-05-21T02:04:30.602Z,28.91
2023-05-21T02:05:31.947Z,32.53
2023-05-21T02:06:31.717Z,29.03
2023-05-21T02:07:30.698Z,28.65
2023-05-21T02:08:30.740Z,29.52
2023-05-21T02:09:30.847Z,31.69
2023-05-21T02:10:31.976Z,31.61
2023-05-21T02:11:30.965Z,33.20
2023-05-21T02:12:30.952Z,30.64
2023-05-21T02:13:32.115Z,33.61
2023-05-21T02:14:31.208Z,29.06
2023-05-21T02:15:32.251Z,32.11
2023-05-21T02:16:31.265Z,33.54
2023-05-21T02:17:32.337Z,32.27
2023-05-21T02:18:32.246Z,30.04
2023-05-21T02:19:31.417Z,32.37
2023-05-21T02:20:32.344Z,31.61
2023-05-21T02:21:31.544Z,33.72
2023-05-21T02:22:32.428Z,32.23
2023-05-21T02:23:32.585Z,30.17
2023-05-21T02:24:32.673Z,30.12
2023-05-21T02:25:31.666Z,33.01
2023-05-21T02:26:31.656Z,31.02
2023-05-21T02:27:31.804Z,30.61
2023-05-21T02:28:31.984Z,29.61
2023-05-21T02:29:31.836Z,27.11
2023-05-21T02:30:31.980Z,31.21
2023-05-21T02:31:32.910Z,29.32
2023-05-21T02:32:32.070Z,28.70
2023-05-21T02:33:32.204Z,33.26
2023-05-21T02:34:33.054Z,29.89
2023-05-21T02:35:33.328Z,28.53
2023-05-21T02:36:32.179Z,28.98
2023-05-21T02:37:33.424Z,28.99
2023-05-21T02:38:33.318Z,30.84
2023-05-21T02:39:32.448Z,30.01
2023-05-21T02:40:32.646Z,30.42
2023-05-21T02:41:32.430Z,30.56
2023-05-21T02:42:33.481Z,26.64
2023-05-21T02:43:33.614Z,29.42
2023-05-21T02:44:32.741Z,29.11
2023-05-21T02:45:32.903Z,27.86
2023-05-21T02:46:32.706Z,29.55
2023-05-21T02:47:32.767Z,29.08
2023-05-21T02:48:32.963Z,30.30
2023-05-21T02:49:32.857Z,29.73
2023-05-21T02:50:33.911Z,29.77
2023-05-21T02:51:32.985Z,28.56
2023-05-21T02:52:34.099Z,28.52
2023-05-21T02:53:33.257Z,27.04
2023-05-21T02:54:34.167Z,33.08
2023-05-21T02:55:34.406Z,26.30
2023-05-21T02:56:33.206Z,29.99
2023-05-21T02:57:33.309Z,28.24
2023-05-21T02:58:34.421Z,30.40
2023-05-21T02:59:33.381Z,30.06
2023-05-21T03:00:34.444Z,30.59
2023-05-21T03:01:33.566Z,31.59
2023-05-21T03:02:33.684Z,25.52
2023-05-21T03:03:33.862Z,26.81
2023-05-21T03:04:33.841Z,31.91
2023-05-21T03:05:35.084Z,29.52
2023-05-21T03:06:33.939Z,30.28
2023-05-21T03:07:34.794Z,31.10
2023-05-21T03:08:34.891Z,29.56
2023-05-21T03:09:34.857Z,27.50
2023-05-21T03:10:34.920Z,28.09
2023-05-21T03:11:34.180Z,31.42
2023-05-21T03:12:34.260Z,29.44
2023-05-21T03:13:34.104Z,31.80
2023-05-21T03:14:34.122Z,30.65
2023-05-21T03:15:35.369Z,33.55
2023-05-21T03:16:35.513Z,30.42
2023-05-21T03:17:34.362Z,30.21
2023-05-21T03:18:35.350Z,30.91
2023-05-21T03:19:35.601Z,28.64
2023-05-21T03:20:34.459Z,29.14
2023-05-21T03:21:35.714Z,28.04
2023-05-21T03:22:34.686Z,29.50
2023-05-21T03:23:35.592Z,29.71
2023-05-21T03:24:35.742Z,29.45
2023-05-21T03:25:34.880Z,28.88
2023-05-21T03:26:34.770Z,28.80
2023-05-21T03:27:34.816Z,29.12
2023-05-21T03:28:34.861Z,30.81
2023-05-21T03:29:34.982Z,30.18
2023-05-21T03:30:35.027Z,29.49
2023-05-21T03:31:36.061Z,29.54
2023-05-21T03:32:36.126Z,29.78
2023-05-21T03:33:36.183Z,25.74
2023-05-21T03:34:35.208Z,32.49
2023-05-21T03:35:36.584Z,29.47
2023-05-21T03:36:36.360Z,28.31
2023-05-21T03:37:36.415Z,27.57
2023-05-21T03:38:37.143Z,29.32
2023-05-21T03:39:35.523Z,30.04
2023-05-21T03:40:35.697Z,32.79
2023-05-21T03:41:36.670Z,33.34
2023-05-21T03:42:35.691Z,32.23
2023-05-21T03:43:37.492Z,27.45
2023-05-21T03:44:37.039Z,27.66
2023-05-21T03:45:36.100Z,26.37
2023-05-21T03:46:36.119Z,28.49
2023-05-21T03:47:36.127Z,31.01
2023-05-21T03:48:36.101Z,33.78
2023-05-21T03:49:37.222Z,30.48
2023-05-21T03:50:37.191Z,32.67
2023-05-21T03:51:36.246Z,32.94
2023-05-21T03:52:37.279Z,30.47
2023-05-21T03:53:37.329Z,31.15
2023-05-21T03:54:37.463Z,29.71
2023-05-21T03:55:37.719Z,32.13
2023-05-21T03:56:36.786Z,27.59
2023-05-21T03:57:37.562Z,32.34
2023-05-21T03:58:36.743Z,29.91
2023-05-21T03:59:36.672Z,32.22
2023-05-21T04:00:36.733Z,29.79
2023-05-21T04:01:37.799Z,33.06
2023-05-21T04:02:37.956Z,29.74
2023-05-21T04:03:39.973Z,29.35
2023-05-21T04:04:38.016Z,35.28
2023-05-21T04:05:37.110Z,32.87
2023-05-21T04:06:38.078Z,32.37
2023-05-21T04:07:37.896Z,27.33
2023-05-21T04:08:37.009Z,29.52
2023-05-21T04:09:36.953Z,33.38
2023-05-21T04:10:36.928Z,30.51
2023-05-21T04:11:37.886Z,28.96
2023-05-21T04:12:36.989Z,32.31
2023-05-21T04:13:37.866Z,29.22
2023-05-21T04:14:36.994Z,31.87
2023-05-21T04:15:37.103Z,29.93
2023-05-21T04:16:37.985Z,28.22
2023-05-21T04:17:36.819Z,30.25
2023-05-21T04:18:37.978Z,29.26
2023-05-21T04:19:36.894Z,29.33
2023-05-21T04:20:36.976Z,30.00
2023-05-21T04:21:36.783Z,27.27
2023-05-21T04:22:37.037Z,29.35
2023-05-21T04:23:37.948Z,30.53
2023-05-21T04:24:37.892Z,31.11
2023-05-21T04:25:37.043Z,28.87
2023-05-21T04:26:36.987Z,30.00
2023-05-21T04:27:37.917Z,30.15
2023-05-21T04:28:38.126Z,28.41
2023-05-21T04:29:36.970Z,30.56
2023-05-21T04:30:37.156Z,29.59
2023-05-21T04:31:37.395Z,29.37
2023-05-21T04:32:37.344Z,30.24
2023-05-21T04:33:37.221Z,30.36
2023-05-21T04:34:38.251Z,30.24
2023-05-21T04:35:37.579Z,27.19
2023-05-21T04:36:38.406Z,29.39
2023-05-21T04:37:38.447Z,31.51
2023-05-21T04:38:38.530Z,28.58
2023-05-21T04:39:37.553Z,27.61
2023-05-21T04:40:37.667Z,28.44
2023-05-21T04:41:37.679Z,31.34
2023-05-21T04:42:38.873Z,28.50
2023-05-21T04:43:37.808Z,27.80
2023-05-21T04:44:38.848Z,30.19
2023-05-21T04:45:38.055Z,32.99
2023-05-21T04:46:39.663Z,30.77
2023-05-21T04:47:38.054Z,34.95
2023-05-21T04:48:39.078Z,31.66
2023-05-21T04:49:38.936Z,31.63
2023-05-21T04:50:37.983Z,31.64
2023-05-21T04:51:38.000Z,28.74
2023-05-21T04:52:38.145Z,29.11
2023-05-21T04:53:39.163Z,31.86
2023-05-21T04:54:37.912Z,30.18
2023-05-21T04:55:38.898Z,31.31
2023-05-21T04:56:38.950Z,30.45
2023-05-21T04:57:37.975Z,31.09
2023-05-21T04:58:38.975Z,32.82
2023-05-21T04:59:38.050Z,30.40
2023-05-21T05:00:38.069Z,27.28
2023-05-21T05:01:38.869Z,32.99
2023-05-21T05:02:37.912Z,30.17
2023-05-21T05:03:39.167Z,29.05
2023-05-21T05:04:38.943Z,29.64
2023-05-21T05:05:38.492Z,30.11
2023-05-21T05:06:37.935Z,28.44
2023-05-21T05:07:37.955Z,29.76
2023-05-21T05:08:38.846Z,30.26
2023-05-21T05:09:38.974Z,29.75
2023-05-21T05:10:39.040Z,30.89
2023-05-21T05:11:38.896Z,31.35
2023-05-21T05:12:39.061Z,28.36
2023-05-21T05:13:38.939Z,29.68
2023-05-21T05:14:39.022Z,28.67
2023-05-21T05:15:38.550Z,29.43
2023-05-21T05:16:38.175Z,31.72
2023-05-21T05:17:39.116Z,31.65
2023-05-21T05:18:38.148Z,27.34
2023-05-21T05:19:38.329Z,30.40
2023-05-21T05:20:39.244Z,31.35
2023-05-21T05:21:38.348Z,29.58
2023-05-21T05:22:38.597Z,29.31
2023-05-21T05:23:39.393Z,28.40
2023-05-21T05:24:38.670Z,28.83
2023-05-21T05:25:38.779Z,28.27
2023-05-21T05:26:38.525Z,30.03
2023-05-21T05:27:39.475Z,30.02
2023-05-21T05:28:38.621Z,30.92
2023-05-21T05:29:39.957Z,31.59
2023-05-21T05:30:39.830Z,26.76
2023-05-21T05:31:40.001Z,29.12
2023-05-21T05:32:38.830Z,27.64
2023-05-21T05:33:40.083Z,31.02
2023-05-21T05:34:39.108Z,31.04
2023-05-21T05:35:38.941Z,32.96
2023-05-21T05:36:38.987Z,31.43
2023-05-21T05:37:39.061Z,30.13
2023-05-21T05:38:39.216Z,29.80
2023-05-21T05:39:40.160Z,31.27
2023-05-21T05:40:39.171Z,25.73
2023-05-21T05:41:39.307Z,26.73
2023-05-21T05:42:40.310Z,25.86
2023-05-21T05:43:40.317Z,30.71
2023-05-21T05:44:40.379Z,31.13
2023-05-21T05:45:40.410Z,29.47
2023-05-21T05:46:39.836Z,29.03
2023-05-21T05:47:39.590Z,31.11
2023-05-21T05:48:39.756Z,32.05
2023-05-21T05:49:39.634Z,28.41
2023-05-21T05:50:39.671Z,28.29
2023-05-21T05:51:39.738Z,27.90
2023-05-21T05:52:39.818Z,26.60
2023-05-21T05:53:40.795Z,28.60
2023-05-21T05:54:40.841Z,28.94
2023-05-21T05:55:41.039Z,30.15
2023-05-21T05:56:39.936Z,30.63
2023-05-21T05:57:42.169Z,30.47
2023-05-21T05:58:40.064Z,27.44
2023-05-21T05:59:40.055Z,30.76
2023-05-21T06:00:39.995Z,34.44
2023-05-21T06:01:41.195Z,28.27
2023-05-21T06:02:39.992Z,29.35
2023-05-21T06:03:41.063Z,31.36
2023-05-21T06:04:39.966Z,28.71
2023-05-21T06:05:41.046Z,28.82
2023-05-21T06:06:41.088Z,29.11
2023-05-21T06:07:40.903Z,29.38
2023-05-21T06:08:40.960Z,25.00
2023-05-21T06:09:40.049Z,31.08
2023-05-21T06:10:40.180Z,34.74
2023-05-21T06:11:41.073Z,27.97
2023-05-21T06:12:40.942Z,33.74
2023-05-21T06:13:39.912Z,28.68
2023-05-21T06:14:41.816Z,30.02
2023-05-21T06:15:39.846Z,31.84
2023-05-21T06:16:39.942Z,32.77
2023-05-21T06:17:41.116Z,33.36
2023-05-21T06:18:40.864Z,33.41
2023-05-21T06:19:39.825Z,33.02
2023-05-21T06:20:40.874Z,32.05
2023-05-21T06:21:39.853Z,29.72
2023-05-21T06:22:39.833Z,30.27
2023-05-21T06:23:39.805Z,29.39
2023-05-21T06:24:39.815Z,31.00
2023-05-21T06:25:39.900Z,30.55
2023-05-21T06:26:39.778Z,31.74
2023-05-21T06:27:40.809Z,27.45
2023-05-21T06:28:39.778Z,30.94
2023-05-21T06:29:40.800Z,30.43
2023-05-21T06:30:39.767Z,27.77
2023-05-21T06:31:40.755Z,31.41
2023-05-21T06:32:39.826Z,30.40
2023-05-21T06:33:40.973Z,31.58
2023-05-21T06:34:39.731Z,30.28
2023-05-21T06:35:40.726Z,31.19
2023-05-21T06:36:40.812Z,29.27
2023-05-21T06:37:39.700Z,30.61
2023-05-21T06:38:40.704Z,30.21
2023-05-21T06:39:39.915Z,29.63
2023-05-21T06:40:39.765Z,27.34
2023-05-21T06:41:40.846Z,30.24
2023-05-21T06:42:39.680Z,31.42
2023-05-21T06:43:40.673Z,31.99
2023-05-21T06:44:39.674Z,28.94
2023-05-21T06:45:41.056Z,30.68
2023-05-21T06:46:40.913Z,29.00
2023-05-21T06:48:39.684Z,26.76
2023-05-21T06:49:40.763Z,28.02
2023-05-21T06:50:39.789Z,29.77
2023-05-21T06:51:40.612Z,29.14
2023-05-21T06:52:39.828Z,30.51
2023-05-21T06:53:40.634Z,32.02
2023-05-21T06:54:39.747Z,28.89
2023-05-21T06:55:39.674Z,32.99
2023-05-21T06:56:40.722Z,31.45
2023-05-21T06:57:40.766Z,28.72
2023-05-21T06:58:39.776Z,30.52
2023-05-21T06:59:39.902Z,31.27
2023-05-21T07:00:40.766Z,30.39
2023-05-21T07:01:41.043Z,29.00
2023-05-21T07:02:39.940Z,28.11
2023-05-21T07:03:41.031Z,26.64
2023-05-21T07:04:41.011Z,29.65
2023-05-21T07:05:40.230Z,32.16
2023-05-21T07:06:41.017Z,33.22
2023-05-21T07:07:41.053Z,30.79
2023-05-21T07:08:39.879Z,30.98
2023-05-21T07:09:40.075Z,31.61
2023-05-21T07:10:40.904Z,32.43
2023-05-21T07:11:40.007Z,31.94
2023-05-21T07:12:41.106Z,31.47
2023-05-21T07:13:40.946Z,32.20
2023-05-21T07:14:41.004Z,31.19
2023-05-21T07:15:40.976Z,29.15
2023-05-21T07:16:40.006Z,31.02
2023-05-21T07:17:41.315Z,33.03
2023-05-21T07:18:40.205Z,30.61
2023-05-21T07:19:41.125Z,32.32
2023-05-21T07:20:40.096Z,33.36
2023-05-21T07:21:41.109Z,29.48
2023-05-21T07:22:40.208Z,31.25
2023-05-21T07:23:40.110Z,33.35
2023-05-21T07:24:40.222Z,30.12
2023-05-21T07:25:40.099Z,32.38
2023-05-21T07:26:41.222Z,36.99
2023-05-21T07:27:41.166Z,31.29
2023-05-21T07:28:40.234Z,31.97
2023-05-21T07:29:40.164Z,29.91
2023-05-21T07:30:40.181Z,30.61
2023-05-21T07:31:40.279Z,31.63
2023-05-21T07:32:40.378Z,31.81
2023-05-21T07:33:41.193Z,32.37
2023-05-21T07:34:41.199Z,31.04
2023-05-21T07:35:41.266Z,29.28
2023-05-21T07:36:41.315Z,32.42
2023-05-21T07:37:40.296Z,30.84
2023-05-21T07:38:41.232Z,26.35
2023-05-21T07:39:41.245Z,31.72
2023-05-21T07:40:41.343Z,29.94
2023-05-21T07:41:40.274Z,31.19
2023-05-21T07:42:40.452Z,29.99
2023-05-21T07:43:40.504Z,32.51
2023-05-21T07:44:40.277Z,31.22
2023-05-21T07:45:41.434Z,31.58
2023-05-21T07:46:41.397Z,32.52
2023-05-21T07:47:41.397Z,30.20
2023-05-21T07:48:40.517Z,31.65
2023-05-21T07:49:41.437Z,33.87
2023-05-21T07:50:41.360Z,31.09
2023-05-21T07:51:40.462Z,32.34
2023-05-21T07:52:40.351Z,33.10
2023-05-21T07:53:40.408Z,30.84
2023-05-21T07:54:41.350Z,33.25
2023-05-21T07:55:41.368Z,34.71
2023-05-21T07:56:40.584Z,31.41
2023-05-21T07:57:41.394Z,32.56
2023-05-21T07:58:41.386Z,31.48
2023-05-21T07:59:41.583Z,30.42
2023-05-21T08:00:40.553Z,30.27
2023-05-21T08:01:40.385Z,28.69
2023-05-21T08:02:40.585Z,27.98
2023-05-21T08:03:40.596Z,33.31
2023-05-21T08:04:41.332Z,28.88
2023-05-21T08:05:40.584Z,30.23
2023-05-21T08:06:41.526Z,32.20
2023-05-21T08:07:40.442Z,31.91
2023-05-21T08:08:41.527Z,32.34
2023-05-21T08:09:41.431Z,31.63
2023-05-21T08:10:40.602Z,31.08
2023-05-21T08:11:40.417Z,31.07
2023-05-21T08:12:41.438Z,29.74
2023-05-21T08:13:40.624Z,25.47
2023-05-21T08:14:41.654Z,30.14
2023-05-21T08:15:40.535Z,31.00
2023-05-21T08:16:40.789Z,29.95
2023-05-21T08:17:40.682Z,29.86
2023-05-21T08:18:40.463Z,29.98
2023-05-21T08:19:40.469Z,30.80
2023-05-21T08:20:41.403Z,30.28
2023-05-21T08:21:40.617Z,31.03
2023-05-21T08:22:40.395Z,28.58
2023-05-21T08:23:41.572Z,29.01
2023-05-21T08:24:40.510Z,30.12
2023-05-21T08:25:40.576Z,25.00
2023-05-21T08:26:40.386Z,31.69
2023-05-21T08:27:41.385Z,30.34
2023-05-21T08:28:41.381Z,31.01
2023-05-21T08:29:40.397Z,28.70
2023-05-21T08:30:40.375Z,31.33
2023-05-21T08:31:41.576Z,27.89
2023-05-21T08:32:41.428Z,28.93
2023-05-21T08:33:40.395Z,31.00
2023-05-21T08:34:40.457Z,30.10
2023-05-21T08:35:41.378Z,27.41
2023-05-21T08:36:41.391Z,32.91
2023-05-21T08:37:41.375Z,31.33
2023-05-21T08:38:41.359Z,30.80
2023-05-21T08:39:40.368Z,32.67
2023-05-21T08:40:40.383Z,32.96
2023-05-21T08:41:41.600Z,32.78
2023-05-21T08:42:41.533Z,32.21
2023-05-21T08:43:41.360Z,29.86
2023-05-21T08:44:40.364Z,28.68
2023-05-21T08:45:40.564Z,30.85
2023-05-21T08:46:40.432Z,35.71
2023-05-21T08:47:41.567Z,30.87
2023-05-21T08:48:40.431Z,29.98
2023-05-21T08:49:40.516Z,31.65
2023-05-21T08:50:41.612Z,33.18
2023-05-21T08:51:40.479Z,31.79
2023-05-21T08:52:41.444Z,33.79
2023-05-21T08:53:41.499Z,32.13
2023-05-21T08:54:40.508Z,32.57
2023-05-21T08:55:40.433Z,34.28
2023-05-21T08:56:40.514Z,30.01
2023-05-21T08:57:41.510Z,30.01
2023-05-21T08:58:40.567Z,30.68
2023-05-21T08:59:41.400Z,33.05
2023-05-21T09:00:40.423Z,31.89
2023-05-21T09:01:41.716Z,33.57
2023-05-21T09:02:41.579Z,25.94
2023-05-21T09:03:41.443Z,32.75
2023-05-21T09:04:41.696Z,33.81
2023-05-21T09:05:40.423Z,31.21
2023-05-21T09:06:40.418Z,33.23
2023-05-21T09:07:41.662Z,33.86
2023-05-21T09:08:41.435Z,31.27
2023-05-21T09:09:41.668Z,31.57
2023-05-21T09:10:40.454Z,34.15
2023-05-21T09:11:40.754Z,38.74
2023-05-21T09:12:40.457Z,33.10
2023-05-21T09:13:41.788Z,33.67
2023-05-21T09:14:40.583Z,34.55
2023-05-21T09:15:41.452Z,35.86
2023-05-21T09:16:41.539Z,32.10
2023-05-21T09:17:40.483Z,34.45
2023-05-21T09:18:41.484Z,33.59
2023-05-21T09:19:40.601Z,34.39
2023-05-21T09:20:40.598Z,34.29
2023-05-21T09:21:40.592Z,34.81
2023-05-21T09:22:41.470Z,33.46
2023-05-21T09:23:40.598Z,32.34
2023-05-21T09:24:40.511Z,34.75
2023-05-21T09:25:41.594Z,35.37
2023-05-21T09:26:41.630Z,34.76
2023-05-21T09:27:40.707Z,34.17
2023-05-21T09:28:41.546Z,33.84
2023-05-21T09:29:40.740Z,34.35
2023-05-21T09:30:41.979Z,34.77
2023-05-21T09:31:41.598Z,35.02
2023-05-21T09:32:41.387Z,32.32
2023-05-21T09:33:40.654Z,32.36
2023-05-21T09:34:40.839Z,36.12
2023-05-21T09:35:40.767Z,35.23
2023-05-21T09:36:40.699Z,35.60
2023-05-21T09:37:40.848Z,36.90
2023-05-21T09:38:40.688Z,35.47
2023-05-21T09:39:40.743Z,34.55
2023-05-21T09:40:40.831Z,33.70
2023-05-21T09:41:40.885Z,34.24
2023-05-21T09:42:40.776Z,30.50
2023-05-21T09:43:41.779Z,37.20
2023-05-21T09:44:40.925Z,34.24
2023-05-21T09:45:41.026Z,35.86
2023-05-21T09:46:42.503Z,37.34
2023-05-21T09:47:42.035Z,39.49
2023-05-21T09:48:41.250Z,36.91
2023-05-21T09:49:41.092Z,38.46
2023-05-21T09:50:41.121Z,36.50
2023-05-21T09:51:41.174Z,35.10
2023-05-21T09:52:42.306Z,38.63
2023-05-21T09:53:42.244Z,39.43
2023-05-21T09:54:41.348Z,35.22
2023-05-21T09:55:41.402Z,34.82
2023-05-21T09:56:41.537Z,39.47
2023-05-21T09:57:42.652Z,39.52
2023-05-21T09:58:41.684Z,35.28
2023-05-21T09:59:42.520Z,38.99
2023-05-21T10:00:41.593Z,36.74
2023-05-21T10:01:41.681Z,39.50
2023-05-21T10:02:41.807Z,37.68
2023-05-21T10:03:42.771Z,37.52
2023-05-21T10:04:42.071Z,42.47
2023-05-21T10:05:41.900Z,38.64
2023-05-21T10:06:41.975Z,39.23
2023-05-21T10:07:41.999Z,40.53
2023-05-21T10:08:42.218Z,39.39
2023-05-21T10:09:43.113Z,36.42
2023-05-21T10:10:43.229Z,41.66
2023-05-21T10:11:42.364Z,38.77
2023-05-21T10:12:43.285Z,39.04
2023-05-21T10:13:43.348Z,41.86
2023-05-21T10:14:42.412Z,42.42
2023-05-21T10:15:42.458Z,37.88
2023-05-21T10:16:43.563Z,39.60
2023-05-21T10:17:43.734Z,39.46
2023-05-21T10:18:43.708Z,43.25
2023-05-21T10:19:42.716Z,42.53
2023-05-21T10:20:42.762Z,40.19
2023-05-21T10:21:43.818Z,43.74
2023-05-21T10:22:43.876Z,41.39
2023-05-21T10:23:43.980Z,41.75
2023-05-21T10:24:43.131Z,41.20
2023-05-21T10:25:43.184Z,41.70
2023-05-21T10:26:44.140Z,41.33
2023-05-21T10:27:43.395Z,42.51
2023-05-21T10:28:44.380Z,44.57
2023-05-21T10:29:43.317Z,42.78
2023-05-21T10:30:44.351Z,42.53
2023-05-21T10:31:44.430Z,44.97
2023-05-21T10:32:43.674Z,43.76
2023-05-21T10:33:44.771Z,45.42
2023-05-21T10:34:43.715Z,43.95
2023-05-21T10:35:44.665Z,44.31
2023-05-21T10:36:43.689Z,45.91
2023-05-21T10:37:43.849Z,44.55
2023-05-21T10:38:44.852Z,46.18
2023-05-21T10:39:44.124Z,46.63
2023-05-21T10:40:44.034Z,43.43
2023-05-21T10:41:45.037Z,46.04
2023-05-21T10:42:44.137Z,47.62
2023-05-21T10:43:44.257Z,47.87
2023-05-21T10:44:44.354Z,44.60
2023-05-21T10:45:45.275Z,46.77
2023-05-21T10:46:44.345Z,45.04
2023-05-21T10:47:45.471Z,46.45
2023-05-21T10:48:44.510Z,46.50
2023-05-21T10:49:44.578Z,45.36
2023-05-21T10:50:45.659Z,51.12
2023-05-21T10:51:44.636Z,44.19
2023-05-21T10:52:44.701Z,49.71
2023-05-21T10:53:45.834Z,48.94
2023-05-21T10:54:44.845Z,46.73
2023-05-21T10:55:44.955Z,47.23
2023-05-21T10:56:45.000Z,48.06
2023-05-21T10:57:45.157Z,47.30
2023-05-21T10:58:46.071Z,50.01
2023-05-21T10:59:46.304Z,49.58
2023-05-21T11:00:45.183Z,48.52
2023-05-21T11:01:45.398Z,46.74
2023-05-21T11:02:45.383Z,47.16
2023-05-21T11:03:45.444Z,49.57
2023-05-21T11:04:45.482Z,47.44
2023-05-21T11:05:46.585Z,47.87
2023-05-21T11:06:46.554Z,46.89
2023-05-21T11:07:45.621Z,46.15
2023-05-21T11:08:45.898Z,48.28
2023-05-21T11:09:45.750Z,46.93
2023-05-21T11:10:46.932Z,49.13
2023-05-21T11:11:45.938Z,50.99
2023-05-21T11:12:46.922Z,48.46
2023-05-21T11:13:45.965Z,48.52
2023-05-21T11:14:46.097Z,45.40
2023-05-21T11:15:47.127Z,49.31
2023-05-21T11:16:47.196Z,47.89
2023-05-21T11:17:46.270Z,51.35
2023-05-21T11:18:47.439Z,51.72
2023-05-21T11:19:46.377Z,51.39
2023-05-21T11:20:47.429Z,49.03
2023-05-21T11:21:47.528Z,49.28
2023-05-21T11:22:46.546Z,49.84
2023-05-21T11:23:47.593Z,48.64
2023-05-21T11:24:48.235Z,45.96
2023-05-21T11:25:46.889Z,47.45
2023-05-21T11:26:46.975Z,47.48
2023-05-21T11:27:48.004Z,49.15
2023-05-21T11:28:47.095Z,48.43
2023-05-21T11:29:48.117Z,48.82
2023-05-21T11:30:47.244Z,50.70
2023-05-21T11:31:48.436Z,48.55
2023-05-21T11:32:48.323Z,49.11
2023-05-21T11:33:47.457Z,51.86
2023-05-21T11:34:47.579Z,50.23
2023-05-21T11:35:47.507Z,47.99
2023-05-21T11:36:48.564Z,50.44
2023-05-21T11:37:48.658Z,51.56
2023-05-21T11:38:47.598Z,50.76
2023-05-21T11:39:48.732Z,50.37
2023-05-21T11:40:48.861Z,50.75
2023-05-21T11:41:47.999Z,50.42
2023-05-21T11:42:48.848Z,49.39
2023-05-21T11:43:47.890Z,52.61
2023-05-21T11:44:48.100Z,49.85
2023-05-21T11:45:48.100Z,50.56
2023-05-21T11:46:48.187Z,51.17
2023-05-21T11:47:48.151Z,52.70
2023-05-21T11:48:48.138Z,51.85
2023-05-21T11:49:48.197Z,52.11
2023-05-21T11:50:48.350Z,48.89
2023-05-21T11:51:48.362Z,50.89
2023-05-21T11:52:48.411Z,48.47
2023-05-21T11:53:49.440Z,50.44
2023-05-21T11:54:49.644Z,52.00
2023-05-21T11:55:49.510Z,51.86
2023-05-21T11:56:48.573Z,51.57
2023-05-21T11:57:48.600Z,51.18
2023-05-21T11:58:49.679Z,53.69
2023-05-21T11:59:48.763Z,51.20
2023-05-21T12:00:48.786Z,51.25
2023-05-21T12:01:49.820Z,53.18
2023-05-21T12:02:50.079Z,54.07
2023-05-21T12:03:50.237Z,50.15
2023-05-21T12:04:48.978Z,50.11
2023-05-21T12:05:50.096Z,52.32
2023-05-21T12:06:49.091Z,50.86
2023-05-21T12:07:50.356Z,51.98
2023-05-21T12:08:49.198Z,51.29
2023-05-21T12:09:49.293Z,54.97
2023-05-21T12:10:49.311Z,52.16
2023-05-21T12:11:50.346Z,55.37
2023-05-21T12:12:55.889Z,52.50
2023-05-21T12:13:50.384Z,52.80
2023-05-21T12:14:49.482Z,53.33
2023-05-21T12:15:49.513Z,54.64
2023-05-21T12:16:50.399Z,55.31
2023-05-21T12:17:49.623Z,55.29
2023-05-21T12:18:50.400Z,54.27
2023-05-21T12:19:49.477Z,51.94
2023-05-21T12:20:50.418Z,52.51
2023-05-21T12:21:49.377Z,55.44
2023-05-21T12:22:49.535Z,54.60
2023-05-21T12:23:49.375Z,53.83
2023-05-21T12:24:50.326Z,58.35
2023-05-21T12:25:50.536Z,53.24
2023-05-21T12:26:50.470Z,53.53
2023-05-21T12:27:49.270Z,53.26
2023-05-21T12:28:50.280Z,53.97
2023-05-21T12:29:50.496Z,53.96
2023-05-21T12:30:49.271Z,54.36
2023-05-21T12:31:50.492Z,53.20
2023-05-21T12:32:50.371Z,56.68
2023-05-21T12:33:49.250Z,56.74
2023-05-21T12:34:49.248Z,54.49
2023-05-21T12:35:49.549Z,55.44
2023-05-21T12:36:50.230Z,54.50
2023-05-21T12:37:49.549Z,53.92
2023-05-21T12:38:50.380Z,56.41
2023-05-21T12:39:49.325Z,57.46
2023-05-21T12:40:49.407Z,52.74
2023-05-21T12:41:49.596Z,52.78
2023-05-21T12:42:49.524Z,58.80
2023-05-21T12:43:49.477Z,53.36
2023-05-21T12:44:49.533Z,55.50
2023-05-21T12:45:49.833Z,54.58
2023-05-21T12:46:49.869Z,55.60
2023-05-21T12:47:49.713Z,54.01
2023-05-21T12:48:49.951Z,54.42
2023-05-21T12:49:50.033Z,52.99
2023-05-21T12:50:49.828Z,55.66
2023-05-21T12:51:49.870Z,57.53
2023-05-21T12:52:49.942Z,55.59
2023-05-21T12:53:50.979Z,58.03